TimePST,TemperatureF,Dew PointF,Humidity,Sea Level PressureIn,VisibilityMPH,Wind Direction,Wind SpeedMPH,Gust SpeedMPH,PrecipitationIn,Events,Conditions,WindDirDegrees,DateUTC
12:56 AM,51.1,35.1,54,29.73,10.0,South,15.0,-,N/A,,Mostly Cloudy,170,2012-12-02 08:56:00
1:56 AM,52.0,35.1,53,29.70,10.0,South,18.4,-,N/A,,Partly Cloudy,180,2012-12-02 09:56:00
2:56 AM,53.1,35.1,50,29.68,10.0,SSW,20.7,-,N/A,,Clear,200,2012-12-02 10:56:00
3:56 AM,51.1,35.1,54,29.66,10.0,SSE,13.8,-,N/A,,Clear,150,2012-12-02 11:56:00
4:56 AM,53.1,35.1,50,29.63,10.0,South,20.7,26.5,N/A,,Clear,190,2012-12-02 12:56:00
5:56 AM,55.0,34.0,45,29.60,10.0,South,18.4,26.5,N/A,,Clear,170,2012-12-02 13:56:00
6:56 AM,57.0,34.0,42,29.60,9.0,SSE,15.0,-,N/A,,Overcast,160,2012-12-02 14:56:00
7:56 AM,55.9,34.0,44,29.58,10.0,South,11.5,-,N/A,,Clear,170,2012-12-02 15:56:00
8:56 AM,60.1,34.0,38,29.62,10.0,WSW,23.0,28.8,N/A,,Overcast,240,2012-12-02 16:56:00
9:56 AM,60.1,36.0,41,29.65,3.0,SSW,35.7,54.1,N/A,,Haze,210,2012-12-02 17:56:00
10:56 AM,59.0,37.0,44,29.68,7.0,SW,23.0,38.0,N/A,,Mostly Cloudy,220,2012-12-02 18:56:00
11:01 AM,59.0,37.4,45,29.74,5.0,SW,21.9,38.0,N/A,,Haze,230,2012-12-02 19:01:00
11:56 AM,54.0,43.0,66,29.75,10.0,West,21.9,33.4,0.00,Rain,Light Rain,260,2012-12-02 19:56:00
12:56 PM,50.0,41.0,71,29.75,10.0,SSW,13.8,-,0.00,Rain,Light Rain,210,2012-12-02 20:56:00
1:27 PM,51.8,42.8,71,29.80,10.0,South,16.1,20.7,0.00,,Mostly Cloudy,190,2012-12-02 21:27:00
1:56 PM,52.0,39.0,61,29.75,10.0,SW,17.3,24.2,0.00,,Scattered Clouds,220,2012-12-02 21:56:00
2:56 PM,53.1,39.0,59,29.79,10.0,WSW,8.1,-,N/A,,Mostly Cloudy,250,2012-12-02 22:56:00
3:56 PM,52.0,36.0,54,29.81,10.0,WSW,13.8,25.3,N/A,,Scattered Clouds,250,2012-12-02 23:56:00
4:56 PM,48.9,28.9,46,29.86,10.0,WNW,11.5,-,N/A,,Partly Cloudy,290,2012-12-03 00:56:00
5:56 PM,44.1,28.9,55,29.87,10.0,NNW,9.2,-,N/A,,Partly Cloudy,340,2012-12-03 01:56:00
6:56 PM,41.0,28.0,60,29.91,10.0,NNW,8.1,-,N/A,,Clear,340,2012-12-03 02:56:00
7:56 PM,41.0,28.0,60,29.94,10.0,Calm,Calm,-,N/A,,Clear,0,2012-12-03 03:56:00
8:56 PM,34.0,26.1,73,29.94,10.0,Calm,Calm,-,N/A,,Clear,0,2012-12-03 04:56:00
9:56 PM,30.0,24.1,79,29.96,10.0,East,8.1,-,N/A,,Clear,80,2012-12-03 05:56:00
10:56 PM,30.0,24.1,79,29.97,10.0,Calm,Calm,-,N/A,,Clear,0,2012-12-03 06:56:00
11:56 PM,28.0,21.9,78,30.00,10.0,West,4.6,-,N/A,,Clear,260,2012-12-03 07:56:00